createdAt,value
2019-06-08T00:02:12.472Z,95.90
2019-06-08T00:04:54.241Z,95.90
2019-06-08T00:07:36.031Z,96.30
2019-06-08T00:10:22.054Z,96.00
2019-06-08T00:13:01.238Z,96.00
2019-06-08T00:15:43.375Z,96.60
2019-06-08T00:18:25.428Z,96.40
2019-06-08T00:21:07.886Z,96.20
2019-06-08T00:23:49.960Z,96.50
2019-06-08T00:26:32.004Z,96.20
2019-06-08T00:29:14.173Z,96.60
2019-06-08T00:31:56.594Z,96.70
2019-06-08T00:34:38.893Z,96.80
2019-06-08T00:37:20.978Z,96.50
2019-06-08T00:40:02.927Z,96.90
2019-06-08T00:42:45.058Z,96.90
2019-06-08T00:45:27.415Z,97.40
2019-06-08T00:48:09.270Z,97.30
2019-06-08T00:50:51.016Z,97.10
2019-06-08T00:53:33.080Z,97.20
2019-06-08T00:56:15.034Z,97.30
2019-06-08T00:58:57.355Z,98.00
2019-06-08T01:01:39.351Z,97.50
2019-06-08T01:04:21.085Z,97.90
2019-06-08T01:07:03.547Z,98.00
2019-06-08T01:09:45.758Z,97.80
2019-06-08T01:12:27.275Z,98.20
2019-06-08T01:15:09.464Z,98.70
2019-06-08T01:18:02.103Z,97.80
2019-06-08T01:20:36.208Z,98.00
2019-06-08T01:23:19.492Z,97.70
2019-06-08T01:26:01.171Z,97.40
2019-06-08T01:28:43.126Z,97.10
2019-06-08T01:31:26.595Z,97.10
2019-06-08T01:34:08.271Z,97.30
2019-06-08T01:36:50.279Z,97.10
2019-06-08T01:39:32.490Z,97.20
2019-06-08T01:42:14.505Z,97.60
2019-06-08T01:48:22.502Z,97.40
2019-06-08T01:51:04.746Z,97.20
2019-06-08T01:53:46.544Z,97.10
2019-06-08T01:56:29.167Z,97.30
2019-06-08T01:59:11.219Z,97.40
2019-06-08T02:01:53.157Z,97.50
2019-06-08T02:04:35.365Z,97.60
2019-06-08T02:07:17.221Z,97.30
2019-06-08T02:09:59.494Z,97.50
2019-06-08T02:12:41.731Z,97.10
2019-06-08T02:15:25.085Z,97.10
2019-06-08T02:18:07.296Z,97.00
2019-06-08T02:20:49.169Z,97.10
2019-06-08T02:23:31.138Z,97.50
2019-06-08T02:26:13.192Z,98.00
2019-06-08T02:28:55.184Z,98.00
2019-06-08T02:31:37.747Z,98.00
2019-06-08T02:34:19.464Z,98.10
2019-06-08T02:37:01.775Z,97.70
2019-06-08T02:39:43.604Z,97.60
2019-06-08T02:42:25.117Z,97.60
2019-06-08T02:48:21.269Z,97.30
2019-06-08T02:51:31.208Z,97.10
2019-06-08T02:54:41.165Z,97.20
2019-06-08T03:01:00.041Z,97.30
2019-06-08T03:04:10.068Z,97.60
2019-06-08T03:07:19.812Z,97.30
2019-06-08T03:10:52.001Z,96.90
2019-06-08T03:14:01.732Z,97.20
2019-06-08T03:16:51.006Z,97.10
2019-06-08T03:19:33.385Z,97.20
2019-06-08T03:25:55.169Z,97.10
2019-06-08T03:28:39.449Z,96.90
2019-06-08T03:31:20.475Z,97.00
2019-06-08T03:37:44.211Z,96.80
2019-06-08T03:40:25.575Z,97.00
2019-06-08T03:43:08.088Z,96.80
2019-06-08T03:45:50.245Z,96.70
2019-06-08T03:48:32.238Z,96.50
2019-06-08T03:51:14.581Z,96.60
2019-06-08T03:53:56.800Z,96.30
2019-06-08T03:56:40.131Z,96.40
2019-06-08T03:59:43.215Z,96.20
2019-06-08T04:02:24.735Z,96.20
2019-06-08T04:05:06.889Z,96.30
2019-06-08T04:07:50.464Z,96.30
2019-06-08T04:10:32.370Z,96.10
2019-06-08T04:13:14.539Z,96.00
2019-06-08T04:15:56.457Z,95.80
2019-06-08T04:18:40.170Z,95.90
2019-06-08T04:21:22.558Z,95.80
2019-06-08T04:24:04.809Z,95.60
2019-06-08T04:26:47.282Z,95.30
2019-06-08T04:29:27.757Z,95.20
2019-06-08T04:32:17.050Z,95.20
2019-06-08T04:35:06.578Z,94.90
2019-06-08T04:38:15.341Z,95.00
2019-06-08T04:41:04.783Z,94.80
2019-06-08T04:43:54.153Z,94.70
2019-06-08T04:46:45.043Z,94.70
2019-06-08T04:49:34.807Z,94.50
2019-06-08T04:52:44.947Z,94.30
2019-06-08T04:55:53.925Z,94.50
2019-06-08T04:58:55.449Z,94.50
2019-06-08T05:01:38.736Z,94.40
2019-06-08T05:04:21.136Z,94.30
2019-06-08T05:07:02.778Z,93.90
2019-06-08T05:09:45.173Z,93.80
2019-06-08T05:12:27.481Z,93.40
2019-06-08T05:15:09.418Z,93.40
2019-06-08T05:17:51.481Z,93.00
2019-06-08T05:20:38.793Z,92.80
2019-06-08T05:23:17.262Z,93.20
2019-06-08T05:25:59.028Z,92.40
2019-06-08T05:28:41.389Z,92.90
2019-06-08T05:31:23.312Z,92.60
2019-06-08T05:34:05.198Z,92.80
2019-06-08T05:36:47.521Z,92.50
2019-06-08T05:39:29.817Z,92.70
2019-06-08T05:42:12.185Z,92.30
2019-06-08T05:44:54.261Z,92.40
2019-06-08T05:57:53.529Z,92.70
2019-06-08T06:00:35.792Z,92.30
2019-06-08T06:03:18.095Z,92.10
2019-06-08T06:06:00.285Z,92.10
2019-06-08T06:08:42.504Z,92.10
2019-06-08T06:11:24.402Z,92.00
2019-06-08T06:14:06.466Z,91.80
2019-06-08T06:16:49.131Z,91.20
2019-06-08T06:19:31.370Z,90.90
2019-06-08T06:22:13.469Z,90.00
2019-06-08T06:24:55.565Z,88.90
2019-06-08T06:27:37.430Z,87.00
2019-06-08T06:30:19.332Z,86.50
2019-06-08T06:33:01.662Z,85.80
2019-06-08T06:35:43.816Z,82.50
2019-06-08T06:38:25.972Z,78.80
2019-06-08T06:41:08.187Z,75.70
2019-06-08T06:43:50.404Z,74.30
2019-06-08T06:49:58.180Z,71.90
2019-06-08T06:52:28.461Z,69.90
2019-06-08T06:55:17.828Z,70.10
2019-06-08T07:00:49.434Z,66.10
2019-06-08T07:07:11.370Z,63.60
2019-06-08T07:09:54.748Z,64.00
2019-06-08T07:12:36.997Z,63.40
2019-06-08T07:15:19.013Z,62.30
2019-06-08T07:18:00.565Z,63.10
2019-06-08T07:20:42.646Z,61.80
2019-06-08T07:23:24.987Z,59.90
2019-06-08T07:29:04.498Z,58.20
2019-06-08T07:31:34.867Z,57.20
2019-06-08T07:34:24.167Z,55.70
2019-06-08T07:37:13.303Z,56.30
2019-06-08T07:40:02.669Z,56.00
2019-06-08T07:42:33.020Z,55.10
2019-06-08T07:45:32.918Z,55.40
2019-06-08T07:48:15.266Z,53.50
2019-06-08T07:50:58.393Z,53.00
2019-06-08T07:53:40.236Z,55.00
2019-06-08T08:02:21.237Z,51.60
2019-06-08T08:05:02.856Z,51.70
2019-06-08T08:07:44.838Z,52.60
2019-06-08T08:10:26.601Z,51.20
2019-06-08T08:13:08.117Z,48.60
2019-06-08T08:15:50.784Z,49.10
2019-06-08T08:18:32.850Z,46.30
2019-06-08T08:24:40.775Z,44.70
2019-06-08T08:27:22.874Z,44.40
2019-06-08T08:30:23.798Z,43.80
2019-06-08T08:32:54.966Z,43.80
2019-06-08T08:36:04.614Z,43.50
2019-06-08T08:38:54.035Z,43.80
2019-06-08T08:41:43.804Z,43.50
2019-06-08T08:44:33.251Z,43.40
2019-06-08T08:47:23.033Z,42.60
2019-06-08T08:50:12.769Z,42.00
2019-06-08T08:53:02.504Z,42.60
2019-06-08T08:56:12.697Z,42.40
2019-06-08T08:59:02.886Z,43.30
2019-06-08T09:02:03.773Z,43.40
2019-06-08T09:04:53.634Z,44.50
2019-06-08T09:08:04.087Z,45.00
2019-06-08T09:10:53.667Z,45.40
2019-06-08T09:13:43.152Z,46.50
2019-06-08T09:16:32.561Z,48.40
2019-06-08T09:23:03.051Z,47.70
2019-06-08T09:26:11.912Z,48.00
2019-06-08T09:29:18.896Z,48.20
2019-06-08T09:38:43.514Z,46.90
2019-06-08T09:41:30.762Z,47.20
2019-06-08T09:44:11.649Z,47.30
2019-06-08T09:46:54.041Z,46.60
2019-06-08T09:49:37.743Z,46.90
2019-06-08T09:52:21.653Z,46.40
2019-06-08T09:55:05.803Z,46.10
2019-06-08T09:57:48.562Z,46.60
2019-06-08T10:04:10.507Z,45.00
2019-06-08T10:10:18.138Z,45.80
2019-06-08T10:13:03.554Z,45.60
2019-06-08T10:15:44.937Z,45.50
2019-06-08T10:18:28.502Z,45.10
2019-06-08T10:21:10.352Z,46.30
2019-06-08T10:23:52.342Z,46.00
2019-06-08T10:26:37.511Z,46.30
2019-06-08T10:29:18.700Z,45.90
2019-06-08T10:32:01.570Z,43.20
2019-06-08T10:34:43.766Z,43.40
2019-06-08T10:37:28.202Z,44.20
2019-06-08T10:40:09.583Z,43.50
2019-06-08T10:43:11.504Z,43.30
2019-06-08T10:45:53.343Z,44.00
2019-06-08T10:48:27.491Z,43.90
2019-06-08T10:51:18.169Z,44.20
2019-06-08T10:54:27.716Z,43.40
2019-06-08T11:00:51.894Z,44.00
2019-06-08T11:04:01.954Z,44.80
2019-06-08T11:07:15.446Z,44.70
2019-06-08T11:10:39.442Z,45.00
2019-06-08T11:13:28.713Z,44.70
2019-06-08T11:16:13.512Z,45.40
2019-06-08T11:22:35.721Z,43.30
2019-06-08T11:25:25.086Z,42.80
2019-06-08T11:28:15.271Z,42.40
2019-06-08T11:31:24.810Z,43.20
2019-06-08T11:34:14.151Z,43.10
2019-06-08T11:37:04.778Z,42.30
2019-06-08T11:40:14.104Z,42.60
2019-06-08T11:43:04.366Z,42.40
2019-06-08T11:46:14.223Z,41.00
2019-06-08T11:52:42.588Z,42.00
2019-06-08T11:55:24.664Z,42.40
2019-06-08T11:58:09.793Z,43.40
2019-06-08T12:10:35.068Z,44.10
2019-06-08T12:13:17.843Z,45.10
2019-06-08T12:15:59.831Z,44.80
2019-06-08T12:18:41.611Z,44.30
2019-06-08T12:21:23.294Z,44.90
2019-06-08T12:24:06.155Z,43.80
2019-06-08T12:26:52.747Z,43.50
2019-06-08T12:29:32.821Z,42.20
2019-06-08T12:32:16.276Z,41.40
2019-06-08T12:35:00.069Z,41.20
2019-06-08T12:37:41.961Z,41.20
2019-06-08T12:43:44.074Z,41.80
2019-06-08T12:46:27.786Z,43.00
2019-06-08T12:49:11.362Z,43.50
2019-06-08T12:51:53.544Z,43.70
2019-06-08T12:54:35.401Z,43.80
2019-06-08T12:57:19.982Z,43.00
2019-06-08T13:00:01.440Z,42.00
2019-06-08T13:09:29.723Z,42.50
2019-06-08T13:16:12.522Z,42.00
2019-06-08T13:19:22.185Z,41.80
2019-06-08T13:22:31.566Z,41.60
2019-06-08T13:25:43.973Z,42.00
2019-06-08T13:28:52.045Z,42.00
2019-06-08T13:31:41.399Z,42.70
2019-06-08T13:34:30.764Z,42.30
2019-06-08T13:37:14.386Z,42.30
2019-06-08T13:39:59.246Z,42.60
2019-06-08T13:42:40.684Z,43.40
2019-06-08T13:45:23.538Z,43.30
2019-06-08T13:51:21.479Z,43.50
2019-06-08T13:54:31.286Z,41.00
2019-06-08T13:57:40.715Z,40.70
2019-06-08T14:04:04.615Z,41.00
2019-06-08T14:06:54.079Z,41.20
2019-06-08T14:09:43.526Z,41.50
2019-06-08T14:12:32.917Z,41.00
2019-06-08T14:15:23.391Z,41.90
2019-06-08T14:18:34.322Z,44.70
2019-06-08T14:21:38.565Z,46.40
2019-06-08T14:24:25.643Z,46.90
2019-06-08T14:27:05.196Z,47.20
2019-06-08T14:29:48.507Z,46.60
2019-06-08T14:32:30.527Z,45.10
2019-06-08T14:35:02.972Z,46.20
2019-06-08T14:38:11.366Z,46.70
2019-06-08T14:41:21.032Z,47.00
2019-06-08T14:44:32.139Z,47.50
2019-06-08T14:47:39.660Z,47.70
2019-06-08T14:50:30.689Z,48.20
2019-06-08T14:53:39.409Z,48.50
2019-06-08T14:56:31.458Z,48.20
2019-06-08T14:59:31.855Z,48.50
2019-06-08T15:02:13.947Z,49.30
2019-06-08T15:04:55.959Z,49.20
2019-06-08T15:11:03.228Z,48.70
2019-06-08T15:17:05.685Z,49.20
2019-06-08T15:19:47.646Z,49.40
2019-06-08T15:22:30.607Z,48.80
2019-06-08T15:25:13.951Z,48.70
2019-06-08T15:31:13.028Z,49.20
2019-06-08T15:34:02.507Z,48.10
2019-06-08T15:36:46.337Z,46.50
2019-06-08T15:39:31.776Z,48.30
2019-06-08T15:42:12.261Z,48.70
2019-06-08T15:44:53.877Z,48.60
2019-06-08T15:47:40.541Z,48.60
2019-06-08T15:50:19.948Z,48.20
2019-06-08T15:53:02.453Z,48.60
2019-06-08T15:55:44.710Z,49.20
2019-06-08T15:58:29.525Z,49.40
2019-06-08T16:01:10.695Z,49.30
2019-06-08T16:07:34.224Z,49.00
2019-06-08T16:10:15.718Z,48.80
2019-06-08T16:12:58.001Z,49.00
2019-06-08T16:15:39.657Z,49.10
2019-06-08T16:18:21.983Z,49.30
2019-06-08T16:21:03.707Z,49.30
2019-06-08T16:23:45.462Z,49.60
2019-06-08T16:26:27.784Z,49.40
2019-06-08T16:29:09.456Z,49.60
2019-06-08T16:31:51.140Z,49.60
2019-06-08T16:34:33.595Z,49.50
2019-06-08T16:37:15.538Z,49.60
2019-06-08T16:39:57.665Z,49.80
2019-06-08T16:42:39.876Z,49.50
2019-06-08T16:45:22.061Z,49.40
2019-06-08T16:48:04.221Z,49.70
2019-06-08T16:50:46.145Z,49.50
2019-06-08T16:53:29.419Z,49.40
2019-06-08T16:56:11.655Z,49.20
2019-06-08T16:58:53.329Z,49.60
2019-06-08T17:01:34.959Z,49.40
2019-06-08T17:04:16.501Z,49.50
2019-06-08T17:06:58.184Z,50.30
2019-06-08T17:09:40.513Z,50.00
2019-06-08T17:12:22.464Z,50.30
2019-06-08T17:15:04.787Z,50.20
2019-06-08T17:17:47.324Z,50.10
2019-06-08T17:20:30.092Z,50.50
2019-06-08T17:23:12.865Z,50.50
2019-06-08T17:25:54.747Z,50.60
2019-06-08T17:28:25.067Z,51.10
2019-06-08T17:31:14.455Z,50.80
2019-06-08T17:37:40.109Z,51.40
2019-06-08T17:41:07.138Z,51.10
2019-06-08T17:43:56.445Z,50.80
2019-06-08T17:46:26.769Z,51.00
2019-06-08T17:49:16.125Z,51.50
2019-06-08T17:51:46.406Z,50.80
2019-06-08T17:54:27.994Z,51.50
2019-06-08T17:57:10.266Z,51.40
2019-06-08T17:59:52.018Z,51.50
2019-06-08T18:02:33.989Z,51.50
2019-06-08T18:05:17.962Z,51.80
2019-06-08T18:07:59.933Z,51.90
2019-06-08T18:13:31.999Z,52.40
2019-06-08T18:16:42.217Z,52.80
2019-06-08T18:23:07.730Z,53.80
2019-06-08T18:26:17.226Z,54.00
2019-06-08T18:29:27.693Z,54.30
2019-06-08T18:32:39.153Z,54.80
2019-06-08T18:35:49.294Z,55.40
2019-06-08T18:38:58.240Z,55.90
2019-06-08T18:42:08.470Z,55.90
2019-06-08T18:44:58.353Z,56.20
2019-06-08T18:51:17.471Z,56.50
2019-06-08T18:54:19.536Z,57.20
2019-06-08T18:57:01.877Z,57.50
2019-06-08T18:59:47.042Z,57.60
2019-06-08T19:02:28.624Z,58.20
2019-06-08T19:05:10.526Z,58.50
2019-06-08T19:07:52.627Z,58.80
2019-06-08T19:10:34.400Z,58.60
2019-06-08T19:13:17.989Z,59.30
2019-06-08T19:16:00.315Z,59.80
2019-06-08T19:18:46.272Z,60.00
2019-06-08T19:21:28.188Z,60.10
2019-06-08T19:24:10.547Z,60.50
2019-06-08T19:26:52.186Z,60.80
2019-06-08T19:29:34.078Z,60.60
2019-06-08T19:32:17.070Z,60.90
2019-06-08T19:34:59.247Z,61.20
2019-06-08T19:37:41.923Z,61.50
2019-06-08T19:40:27.022Z,61.70
2019-06-08T19:43:09.082Z,62.00
2019-06-08T19:45:52.119Z,62.10
2019-06-08T19:48:34.319Z,62.20
2019-06-08T19:51:17.131Z,62.40
2019-06-08T19:53:59.053Z,62.80
2019-06-08T19:56:41.882Z,63.10
2019-06-08T19:59:23.926Z,63.10
2019-06-08T20:02:08.480Z,63.30
2019-06-08T20:04:49.553Z,63.80
2019-06-08T20:07:20.182Z,63.90
2019-06-08T20:10:09.808Z,64.70
2019-06-08T20:12:59.197Z,64.90
2019-06-08T20:15:55.102Z,65.60
2019-06-08T20:18:51.688Z,65.10
2019-06-08T20:22:01.392Z,65.90
2019-06-08T20:24:44.086Z,66.70
2019-06-08T20:27:14.489Z,65.80
2019-06-08T20:30:08.403Z,66.20
2019-06-08T20:33:14.418Z,65.90
2019-06-08T20:36:03.818Z,65.50
2019-06-08T20:38:53.183Z,65.40
2019-06-08T20:44:57.307Z,66.00
2019-06-08T20:48:05.868Z,66.30
2019-06-08T20:54:03.791Z,66.10
2019-06-08T20:56:53.539Z,65.80
2019-06-08T20:59:43.592Z,66.70
2019-06-08T21:05:43.685Z,66.10
2019-06-08T21:08:37.222Z,66.30
2019-06-08T21:11:28.069Z,66.40
2019-06-08T21:14:17.489Z,66.70
2019-06-08T21:16:50.467Z,66.80
2019-06-08T21:19:58.429Z,67.30
2019-06-08T21:22:51.756Z,67.70
2019-06-08T21:26:00.104Z,68.00
2019-06-08T21:29:08.818Z,68.30
2019-06-08T21:32:01.788Z,68.10
2019-06-08T21:35:08.842Z,68.00
2019-06-08T21:38:00.996Z,68.10
2019-06-08T21:41:08.817Z,68.00
2019-06-08T21:43:39.174Z,68.40
2019-06-08T21:46:22.283Z,68.80
2019-06-08T21:48:53.481Z,69.40
2019-06-08T21:51:44.226Z,69.10
2019-06-08T21:54:33.712Z,70.10
2019-06-08T21:57:23.128Z,70.30
2019-06-08T22:00:34.804Z,71.60
2019-06-08T22:03:47.044Z,72.10
2019-06-08T22:06:58.580Z,72.70
2019-06-08T22:10:07.437Z,73.80
2019-06-08T22:13:37.413Z,73.50
2019-06-08T22:16:47.589Z,74.10
2019-06-08T22:19:59.539Z,75.60
2019-06-08T22:23:08.161Z,76.70
2019-06-08T22:25:59.219Z,77.30
2019-06-08T22:29:08.095Z,77.90
2019-06-08T22:31:52.184Z,78.30
2019-06-08T22:34:34.096Z,77.80
2019-06-08T22:37:16.567Z,76.50
2019-06-08T22:40:00.904Z,75.90
2019-06-08T22:42:42.565Z,76.70
2019-06-08T22:45:24.731Z,76.60
2019-06-08T22:48:08.205Z,76.70
2019-06-08T22:50:50.488Z,77.40
2019-06-08T22:53:32.461Z,77.20
2019-06-08T22:56:14.519Z,77.60
2019-06-08T22:59:00.550Z,78.40
2019-06-08T23:01:40.777Z,78.40
2019-06-08T23:04:22.408Z,78.10
2019-06-08T23:07:09.521Z,78.40
2019-06-08T23:09:38.422Z,78.80
2019-06-08T23:12:28.720Z,79.30
2019-06-08T23:15:38.292Z,79.10
2019-06-08T23:18:27.988Z,79.90
2019-06-08T23:21:18.042Z,80.00
2019-06-08T23:24:27.928Z,80.10
2019-06-08T23:27:17.626Z,80.90
2019-06-08T23:30:20.363Z,80.80
2019-06-08T23:33:04.300Z,81.30
2019-06-08T23:36:24.511Z,82.00
2019-06-08T23:38:30.165Z,81.60
2019-06-08T23:41:11.712Z,82.50
2019-06-08T23:43:52.465Z,82.40
2019-06-08T23:46:41.911Z,82.80
2019-06-08T23:49:31.294Z,83.00
2019-06-08T23:52:20.903Z,83.20
2019-06-08T23:58:01.410Z,83.70
